Terminal Aerodrome Forecast
Issued by NWS Louisville, KY

Home | Current Version | Previous Version | Text Only | Print | Product List | Glossary On
Versions: 1 2 3 4 5 6 7 8 9 10 11 12 13 14 15 16 17
000
FTUS43 KLMK 032300
TAFLEX
TAF
KLEX 032320Z 0400/0424 VRB04KT P6SM VCTS SCT030CB BKN100
      TEMPO 0400/0402 3SM -TSRA BR BKN030CB
     FM040300 VRB03KT 5SM BR BKN050
     FM040800 VRB03KT 4SM BR BKN025
     FM041400 VRB04KT P6SM BKN035=

USA.gov is the U.S. government's official web portal to all federal, state and local government web resources and services.